Time;durP1;ratioP1;P1;durP2;ratioP2;P2;SDS_P1;SDS_P2;PMS_P1;PMS_P2;Temp;Humidity;BMP_temperature;BMP_pressure;BME280_temperature;BME280_humidity;BME280_pressure;Samples;Min_cycle;Max_cycle;Signal;HPM_P1;HPM_P2
2023/12/10 00:01:47;;;;;;;;;;;;;;;25.62;40.26;93676.38;5015296;28;9187;-64
2023/12/10 00:04:43;;;;;;;;;;;;;;;25.61;40.03;93690.69;5010861;28;8715;-64
2023/12/10 00:07:26;;;;;;;;;;;;;;;25.59;40.00;93684.97;4953762;28;8956;-64
2023/12/10 00:10:26;;;;;;;;;;;;;;;25.60;40.07;93694.72;4939933;28;8732;-64
2023/12/10 00:12:52;;;;;;;;;;;;;;;25.58;39.54;93686.97;4934197;29;7762;-64
2023/12/10 00:15:54;;;;;;;;;;;;;;;25.58;39.29;93695.22;4941791;28;7126;-64
2023/12/10 00:18:39;;;;;;;;;;;;;;;25.58;39.88;93700.75;4879636;29;7234;-65
2023/12/10 00:21:18;;;;;;;;;;;;;;;25.57;40.05;93691.00;4882624;29;9128;-65
2023/12/10 00:23:55;;;;;;;;;;;;;;;25.58;40.16;93697.25;4881299;29;7323;-65
2023/12/10 00:26:51;;;;;;;;;;;;;;;25.55;39.19;93688.03;4879321;29;7136;-65
2023/12/10 00:29:30;;;;;;;;;;;;;;;25.57;39.39;93696.50;4825702;29;8225;-65
2023/12/10 00:31:56;;;;;;;;;;;;;;;25.57;39.62;93702.03;4822346;29;7387;-65
2023/12/10 00:34:54;;;;;;;;;;;;;;;25.57;40.20;93724.06;4807220;29;7516;-65
2023/12/10 00:37:40;;;;;;;;;;;;;;;25.56;40.22;93722.56;4829546;29;7855;-65
2023/12/10 00:40:07;;;;;;;;;;;;;;;25.55;39.61;93737.59;4809082;29;7225;-65
2023/12/10 00:42:46;;;;;;;;;;;;;;;25.54;40.15;93741.63;4792399;29;7838;-64
2023/12/10 00:45:25;;;;;;;;;;;;;;;25.56;39.18;93752.84;4810699;29;7579;-65
2023/12/10 00:48:01;;;;;;;;;;;;;;;25.55;39.60;93751.38;4816055;29;7032;-65
2023/12/10 00:50:41;;;;;;;;;;;;;;;25.56;39.90;93765.88;4825057;29;8096;-65
2023/12/10 00:53:17;;;;;;;;;;;;;;;25.55;40.18;93751.38;4866186;29;6999;-64
2023/12/10 00:55:54;;;;;;;;;;;;;;;25.56;39.58;93768.63;4880245;29;7206;-65
2023/12/10 00:58:20;;;;;;;;;;;;;;;25.55;40.24;93764.41;4876058;29;8955;-64
2023/12/10 01:00:59;;;;;;;;;;;;;;;25.54;39.82;93768.41;4888364;29;7559;-65
2023/12/10 01:03:27;;;;;;;;;;;;;;;25.53;39.65;93775.94;4885204;29;7002;-65
2023/12/10 01:05:53;;;;;;;;;;;;;;;25.55;40.19;93802.94;4905430;29;7242;-65
2023/12/10 01:08:22;;;;;;;;;;;;;;;25.51;39.81;93797.75;4960718;28;9263;-64
2023/12/10 01:10:48;;;;;;;;;;;;;;;25.55;39.98;93798.19;4953702;28;7234;-65
2023/12/10 01:13:24;;;;;;;;;;;;;;;25.54;39.86;93796.69;5001185;28;8964;-65
2023/12/10 01:15:55;;;;;;;;;;;;;;;25.52;39.55;93823.25;5014084;28;9038;-65
2023/12/10 01:18:24;;;;;;;;;;;;;;;25.55;39.59;93844.25;5015484;28;8839;-65
2023/12/10 01:21:09;;;;;;;;;;;;;;;25.55;39.62;93847.75;5039934;28;7057;-65
2023/12/10 01:24:00;;;;;;;;;;;;;;;25.54;40.35;93846.25;5032819;28;7001;-65
2023/12/10 01:26:31;;;;;;;;;;;;;;;25.54;40.09;93873.03;5018593;28;7104;-63
2023/12/10 01:29:09;;;;;;;;;;;;;;;25.51;40.30;93869.34;5009179;28;7211;-62
2023/12/10 01:31:47;;;;;;;;;;;;;;;25.52;39.86;93859.81;5024371;28;7273;-63
2023/12/10 01:34:23;;;;;;;;;;;;;;;25.51;39.47;93858.34;5016884;28;7178;-63
2023/12/10 01:36:51;;;;;;;;;;;;;;;25.51;39.98;93850.06;5032148;28;7315;-63
2023/12/10 01:39:17;;;;;;;;;;;;;;;25.52;40.29;93862.56;5019436;28;7212;-63
2023/12/10 01:41:47;;;;;;;;;;;;;;;25.54;40.19;93857.28;5032154;28;7015;-63
2023/12/10 01:44:13;;;;;;;;;;;;;;;25.51;39.97;93861.09;5035844;28;7043;-63
2023/12/10 01:46:41;;;;;;;;;;;;;;;25.51;39.78;93868.59;5014375;28;7096;-63
2023/12/10 01:49:17;;;;;;;;;;;;;;;25.52;39.42;93875.56;5015627;28;6999;-63
2023/12/10 01:51:45;;;;;;;;;;;;;;;25.54;40.15;93873.03;5032377;28;7310;-63
2023/12/10 01:54:38;;;;;;;;;;;;;;;25.52;40.36;93876.31;5033467;28;7253;-63
2023/12/10 01:57:11;;;;;;;;;;;;;;;25.52;39.61;93870.06;5018853;28;7480;-63
2023/12/10 01:59:40;;;;;;;;;;;;;;;25.51;40.10;93877.59;5034379;28;7617;-63
2023/12/10 02:02:07;;;;;;;;;;;;;;;25.54;39.28;93871.03;5040823;28;8730;-63
2023/12/10 02:04:36;;;;;;;;;;;;;;;25.52;39.49;93859.81;5030184;28;7323;-63
2023/12/10 02:07:07;;;;;;;;;;;;;;;25.50;40.29;93867.84;5037120;28;7351;-63
2023/12/10 02:09:35;;;;;;;;;;;;;;;25.52;40.08;93864.56;5042069;28;9096;-63
2023/12/10 02:12:04;;;;;;;;;;;;;;;25.49;39.81;93863.59;5042007;28;6997;-63
2023/12/10 02:14:30;;;;;;;;;;;;;;;25.52;39.76;93867.31;5019042;28;7136;-63
2023/12/10 02:16:58;;;;;;;;;;;;;;;25.49;39.81;93868.38;5045629;28;7053;-63
2023/12/10 02:19:24;;;;;;;;;;;;;;;25.52;39.49;93886.59;5039523;28;8790;-62
2023/12/10 02:21:52;;;;;;;;;;;;;;;25.47;39.48;93877.13;5023491;28;8747;-62
2023/12/10 02:24:31;;;;;;;;;;;;;;;25.51;39.40;93891.38;5017946;28;7625;-63
2023/12/10 02:26:58;;;;;;;;;;;;;;;25.49;40.17;93882.16;5016889;28;9109;-63
2023/12/10 02:29:25;;;;;;;;;;;;;;;25.52;40.03;93859.81;5038380;28;7051;-63
2023/12/10 02:31:55;;;;;;;;;;;;;;;25.52;39.65;93848.78;5042193;28;8759;-62
2023/12/10 02:34:24;;;;;;;;;;;;;;;25.48;40.29;93853.84;5019845;28;7193;-62
2023/12/10 02:36:51;;;;;;;;;;;;;;;25.48;40.06;93842.84;5029119;28;7259;-62
2023/12/10 02:39:17;;;;;;;;;;;;;;;25.50;39.53;93848.56;5034292;28;7064;-62
2023/12/10 02:41:42;;;;;;;;;;;;;;;25.50;40.18;93859.59;5021724;28;6961;-62
2023/12/10 02:44:10;;;;;;;;;;;;;;;25.49;39.82;93855.34;5034113;28;7251;-62
2023/12/10 02:46:36;;;;;;;;;;;;;;;25.47;39.56;93857.88;5021912;28;7201;-62
2023/12/10 02:49:04;;;;;;;;;;;;;;;25.50;39.98;93862.34;5024131;28;7532;-62
2023/12/10 02:51:33;;;;;;;;;;;;;;;25.51;40.04;93846.56;5024061;28;7061;-63
2023/12/10 02:54:00;;;;;;;;;;;;;;;25.49;39.43;93860.84;5037502;28;7359;-62
2023/12/10 02:56:27;;;;;;;;;;;;;;;25.50;39.51;93851.31;5022735;28;7256;-63
2023/12/10 02:58:56;;;;;;;;;;;;;;;25.50;39.50;93856.09;5033434;28;8710;-62
2023/12/10 03:01:25;;;;;;;;;;;;;;;25.49;40.03;93849.81;5042771;28;8793;-63
2023/12/10 03:03:51;;;;;;;;;;;;;;;25.49;39.70;93860.13;5004083;28;7532;-63
2023/12/10 03:06:18;;;;;;;;;;;;;;;25.49;39.35;93855.34;5033001;28;7259;-63
2023/12/10 03:08:53;;;;;;;;;;;;;;;25.50;39.39;93861.59;5023587;28;7423;-63
2023/12/10 03:11:19;;;;;;;;;;;;;;;25.47;39.41;93855.13;5017455;28;8360;-62
2023/12/10 03:13:45;;;;;;;;;;;;;;;25.46;40.29;93858.41;5046013;28;7168;-63
2023/12/10 03:16:15;;;;;;;;;;;;;;;25.48;39.86;93847.59;5016571;28;6969;-63
2023/12/10 03:18:44;;;;;;;;;;;;;;;25.46;39.72;93845.38;5039238;28;7226;-62
2023/12/10 03:21:14;;;;;;;;;;;;;;;25.44;39.36;93845.16;5022339;28;7023;-63
2023/12/10 03:23:40;;;;;;;;;;;;;;;25.43;40.31;93852.66;5025107;28;7289;-63
2023/12/10 03:26:06;;;;;;;;;;;;;;;25.43;40.09;93863.69;5027347;28;7239;-63
2023/12/10 03:28:34;;;;;;;;;;;;;;;25.46;40.23;93864.66;5015490;28;7216;-63
2023/12/10 03:31:01;;;;;;;;;;;;;;;25.45;40.05;93874.16;5031767;28;8655;-63
2023/12/10 03:33:27;;;;;;;;;;;;;;;25.43;39.67;93873.94;5029656;28;7237;-63
2023/12/10 03:35:59;;;;;;;;;;;;;;;25.46;39.46;93881.19;5032390;28;7077;-63
2023/12/10 03:38:31;;;;;;;;;;;;;;;25.47;39.42;93884.69;5034873;28;7257;-63
2023/12/10 03:41:18;;;;;;;;;;;;;;;25.45;39.30;93885.19;5028667;28;9174;-63
2023/12/10 03:43:44;;;;;;;;;;;;;;;25.46;39.36;93886.69;5028585;28;7221;-63
2023/12/10 03:46:15;;;;;;;;;;;;;;;25.46;39.15;93894.94;5032421;28;9282;-63
2023/12/10 03:48:41;;;;;;;;;;;;;;;25.47;39.17;93901.19;5035397;28;9228;-63
2023/12/10 03:51:08;;;;;;;;;;;;;;;25.46;40.24;93894.94;5032919;28;7383;-63
2023/12/10 03:53:55;;;;;;;;;;;;;;;25.46;39.54;93902.44;5033527;28;7092;-63
2023/12/10 03:56:35;;;;;;;;;;;;;;;25.44;39.88;93902.97;5033439;28;9319;-61
2023/12/10 03:59:09;;;;;;;;;;;;;;;25.48;39.84;93919.19;5033615;28;9274;-62
2023/12/10 04:01:36;;;;;;;;;;;;;;;25.48;40.07;93922.69;5036992;28;7264;-61
2023/12/10 04:04:04;;;;;;;;;;;;;;;25.49;39.80;93932.44;5037049;28;7848;-62
2023/12/10 04:06:31;;;;;;;;;;;;;;;25.47;39.41;93945.97;5016040;28;6967;-61
2023/12/10 04:09:06;;;;;;;;;;;;;;;25.47;39.74;93943.22;5016544;28;9108;-61
2023/12/10 04:11:32;;;;;;;;;;;;;;;25.47;39.95;93948.72;5034599;28;7248;-61
2023/12/10 04:14:07;;;;;;;;;;;;;;;25.49;39.39;93959.25;5042849;28;9264;-61
2023/12/10 04:16:39;;;;;;;;;;;;;;;25.49;40.13;93948.22;5018943;28;7246;-62
2023/12/10 04:19:06;;;;;;;;;;;;;;;25.47;39.63;93940.47;5040664;28;9136;-61
2023/12/10 04:21:32;;;;;;;;;;;;;;;25.48;39.24;93949.47;5027288;28;8871;-61
2023/12/10 04:24:03;;;;;;;;;;;;;;;25.48;39.24;93964.00;5025811;28;7615;-61
2023/12/10 04:26:35;;;;;;;;;;;;;;;25.46;40.12;93960.28;5015799;28;9205;-61
2023/12/10 04:29:30;;;;;;;;;;;;;;;25.45;40.16;93970.53;5034459;28;7051;-61
2023/12/10 04:32:37;;;;;;;;;;;;;;;25.48;39.67;93974.25;4959838;28;6985;-61
2023/12/10 04:35:27;;;;;;;;;;;;;;;25.52;40.32;93961.69;4981442;28;9366;-61
2023/12/10 04:38:02;;;;;;;;;;;;;;;25.58;39.48;93970.63;4955998;28;7411;-61
2023/12/10 04:40:38;;;;;;;;;;;;;;;25.56;39.30;93975.16;4958532;28;7781;-62
2023/12/10 04:43:04;;;;;;;;;;;;;;;25.50;39.86;93991.75;4976752;28;7244;-61
2023/12/10 04:45:46;;;;;;;;;;;;;;;25.50;39.85;93994.50;4989594;28;8736;-61
2023/12/10 04:48:14;;;;;;;;;;;;;;;25.49;39.58;93982.00;4989319;28;8837;-61
2023/12/10 04:50:42;;;;;;;;;;;;;;;25.49;39.73;93995.03;4940442;28;7074;-61
2023/12/10 04:53:44;;;;;;;;;;;;;;;25.47;40.11;93998.28;4976828;28;9007;-61
2023/12/10 04:56:19;;;;;;;;;;;;;;;25.46;39.67;93991.31;4902701;29;7173;-61
2023/12/10 04:58:45;;;;;;;;;;;;;;;25.47;39.78;93998.28;4900349;29;7223;-62
2023/12/10 05:01:12;;;;;;;;;;;;;;;25.48;39.68;93999.03;4902140;29;7165;-61
2023/12/10 05:04:02;;;;;;;;;;;;;;;25.47;39.91;93997.56;4889383;29;8725;-61
2023/12/10 05:06:30;;;;;;;;;;;;;;;25.42;39.37;93993.63;4894481;29;9493;-63
2023/12/10 05:09:26;;;;;;;;;;;;;;;25.45;39.43;93991.84;4927183;28;7105;-64
2023/12/10 05:12:04;;;;;;;;;;;;;;;25.43;39.32;93995.84;4915193;29;7278;-64
2023/12/10 05:14:45;;;;;;;;;;;;;;;25.45;39.94;94009.09;4914660;29;9524;-63
2023/12/10 05:17:22;;;;;;;;;;;;;;;25.44;39.66;94013.13;4907256;29;7260;-63
2023/12/10 05:19:49;;;;;;;;;;;;;;;25.46;39.76;94016.09;4910490;29;6976;-63
2023/12/10 05:22:26;;;;;;;;;;;;;;;25.44;40.04;94018.63;4919164;29;9517;-62
2023/12/10 05:24:55;;;;;;;;;;;;;;;25.45;39.61;94027.63;4913188;29;6984;-63
2023/12/10 05:27:51;;;;;;;;;;;;;;;25.45;40.05;94025.59;4915735;29;7227;-63
2023/12/10 05:30:30;;;;;;;;;;;;;;;25.42;40.09;94024.63;4898450;29;9345;-63
2023/12/10 05:33:22;;;;;;;;;;;;;;;25.45;39.67;94019.38;4915537;29;7135;-64
2023/12/10 05:35:50;;;;;;;;;;;;;;;25.45;40.16;94028.34;4901308;29;7245;-63
2023/12/10 05:38:46;;;;;;;;;;;;;;;25.46;39.03;94018.09;4917622;29;7252;-64
2023/12/10 05:41:12;;;;;;;;;;;;;;;25.44;39.33;94021.38;4915962;29;9484;-63
2023/12/10 05:43:49;;;;;;;;;;;;;;;25.47;39.27;94027.84;4919071;29;7213;-63
2023/12/10 05:46:31;;;;;;;;;;;;;;;25.46;39.47;94032.63;4931464;29;7273;-63
2023/12/10 05:48:59;;;;;;;;;;;;;;;25.46;39.04;94040.13;4952401;28;7179;-64
2023/12/10 05:51:37;;;;;;;;;;;;;;;25.47;39.03;94045.09;4967706;28;8725;-63
2023/12/10 05:54:16;;;;;;;;;;;;;;;25.46;39.13;94048.38;4976190;28;7288;-63
2023/12/10 05:56:51;;;;;;;;;;;;;;;25.47;39.82;94050.59;4975643;28;7179;-63
2023/12/10 05:59:22;;;;;;;;;;;;;;;25.47;39.57;94053.38;4987344;28;9115;-63
2023/12/10 06:01:48;;;;;;;;;;;;;;;25.47;39.67;94047.13;4962656;28;7500;-63
2023/12/10 06:04:15;;;;;;;;;;;;;;;25.48;39.29;94054.88;4967895;28;7276;-63
2023/12/10 06:06:41;;;;;;;;;;;;;;;25.47;39.67;94052.63;5012748;28;8994;-63
2023/12/10 06:09:09;;;;;;;;;;;;;;;25.49;40.36;94053.59;5034320;28;8974;-63
2023/12/10 06:11:36;;;;;;;;;;;;;;;25.47;39.38;94049.88;5035519;28;7667;-63
2023/12/10 06:14:02;;;;;;;;;;;;;;;25.48;39.92;94035.59;5035442;28;9145;-63
2023/12/10 06:16:48;;;;;;;;;;;;;;;25.48;39.57;94032.84;5035667;28;9860;-62
2023/12/10 06:19:41;;;;;;;;;;;;;;;25.49;40.14;94036.34;5037959;28;7222;-62
2023/12/10 06:22:09;;;;;;;;;;;;;;;25.49;40.03;94048.06;4971146;28;7084;-62
2023/12/10 06:24:46;;;;;;;;;;;;;;;25.49;39.82;94048.06;4949663;28;9084;-62
2023/12/10 06:27:25;;;;;;;;;;;;;;;25.46;39.63;94057.41;4951285;28;8128;-62
2023/12/10 06:30:08;;;;;;;;;;;;;;;25.49;40.04;94061.13;4953467;28;7166;-62
2023/12/10 06:32:35;;;;;;;;;;;;;;;25.48;39.97;94059.63;4970413;28;7182;-62
2023/12/10 06:35:01;;;;;;;;;;;;;;;25.48;39.92;94062.38;4964576;28;7079;-61
2023/12/10 06:37:56;;;;;;;;;;;;;;;25.46;39.27;94073.91;4962252;28;6986;-62
2023/12/10 06:40:34;;;;;;;;;;;;;;;25.51;39.63;94073.13;4918402;29;8911;-62
2023/12/10 06:43:10;;;;;;;;;;;;;;;25.55;40.06;94075.56;4940902;28;7003;-62
2023/12/10 06:45:58;;;;;;;;;;;;;;;25.58;39.41;94085.56;4950629;28;7431;-62
2023/12/10 06:48:28;;;;;;;;;;;;;;;25.56;39.66;94083.31;4933396;28;8911;-61
2023/12/10 06:51:31;;;;;;;;;;;;;;;25.59;39.16;94089.78;4949532;28;9438;-62
2023/12/10 06:53:57;;;;;;;;;;;;;;;25.55;40.23;94083.84;4935794;29;6991;-62
2023/12/10 06:56:38;;;;;;;;;;;;;;;25.58;40.01;94083.53;4935560;29;8913;-62
2023/12/10 06:59:28;;;;;;;;;;;;;;;25.62;39.57;94088.75;4929936;28;7238;-62
2023/12/10 07:01:56;;;;;;;;;;;;;;;25.65;39.72;94085.72;4967352;28;7504;-62
2023/12/10 07:04:38;;;;;;;;;;;;;;;25.67;40.35;94080.44;4980392;28;9089;-62
2023/12/10 07:07:04;;;;;;;;;;;;;;;25.66;39.39;94073.44;4966867;28;8844;-62
2023/12/10 07:09:45;;;;;;;;;;;;;;;25.66;40.02;94083.72;4939491;28;9057;-62
2023/12/10 07:12:32;;;;;;;;;;;;;;;25.64;39.92;94089.75;4956440;28;7066;-61
2023/12/10 07:15:00;;;;;;;;;;;;;;;25.65;40.63;94082.97;4940189;28;8521;-61
2023/12/10 07:17:35;;;;;;;;;;;;;;;25.65;40.04;94090.47;5023561;28;7233;-61
2023/12/10 07:20:03;;;;;;;;;;;;;;;25.64;40.03;94098.00;5013659;28;6953;-61
2023/12/10 07:23:02;;;;;;;;;;;;;;;25.63;40.77;94107.50;5021070;28;7259;-61
2023/12/10 07:25:48;;;;;;;;;;;;;;;25.62;40.30;94113.56;5032878;28;8155;-64
2023/12/10 07:28:16;;;;;;;;;;;;;;;25.64;40.49;94116.53;5027644;28;7228;-65
2023/12/10 07:30:44;;;;;;;;;;;;;;;25.66;39.88;94123.03;5034155;28;9457;-64
2023/12/10 07:33:29;;;;;;;;;;;;;;;25.72;39.91;94131.97;5016755;28;8022;-64
2023/12/10 07:36:18;;;;;;;;;;;;;;;25.71;39.99;94149.00;5037127;28;9012;-65
2023/12/10 07:39:04;;;;;;;;;;;;;;;25.75;40.23;94152.22;5020390;28;7074;-66
2023/12/10 07:42:08;;;;;;;;;;;;;;;25.78;40.37;94162.19;5032371;28;7251;-65
2023/12/10 07:44:42;;;;;;;;;;;;;;;25.77;39.93;94161.47;5035528;28;6988;-65
2023/12/10 07:47:14;;;;;;;;;;;;;;;25.80;40.57;94181.69;5033254;28;7222;-65
2023/12/10 07:49:54;;;;;;;;;;;;;;;25.78;40.10;94187.75;5036089;28;7263;-65
2023/12/10 07:52:52;;;;;;;;;;;;;;;25.80;40.42;94196.22;5028301;28;9543;-65
2023/12/10 07:56:04;;;;;;;;;;;;;;;25.83;40.25;94197.97;4989104;28;9271;-65
2023/12/10 07:58:30;;;;;;;;;;;;;;;25.83;39.78;94206.22;4943396;28;7224;-65
2023/12/10 08:00:56;;;;;;;;;;;;;;;25.84;40.06;94209.72;4934558;28;9083;-64
2023/12/10 08:03:32;;;;;;;;;;;;;;;25.81;40.22;94217.03;4922342;29;7041;-66
2023/12/10 08:06:07;;;;;;;;;;;;;;;25.76;39.70;94215.06;4945938;28;9297;-64
2023/12/10 08:08:50;;;;;;;;;;;;;;;25.76;40.48;94228.09;4956925;28;7306;-64
2023/12/10 08:11:23;;;;;;;;;;;;;;;25.76;39.75;94230.84;4949536;28;10260;-64
2023/12/10 08:13:51;;;;;;;;;;;;;;;25.74;39.49;94242.38;4950329;28;7333;-64
2023/12/10 08:16:17;;;;;;;;;;;;;;;25.78;39.81;94248.34;4928610;28;8688;-65
2023/12/10 08:18:57;;;;;;;;;;;;;;;25.81;39.85;94247.31;4944136;28;7268;-65
2023/12/10 08:21:23;;;;;;;;;;;;;;;25.80;39.72;94234.81;4933130;28;7274;-65
2023/12/10 08:23:49;;;;;;;;;;;;;;;25.82;39.74;94240.53;4923385;28;8746;-65
2023/12/10 08:26:48;;;;;;;;;;;;;;;25.83;39.90;94233.78;4942983;28;6977;-65
2023/12/10 08:29:30;;;;;;;;;;;;;;;25.82;40.14;94243.28;4925557;29;7246;-65
2023/12/10 08:32:16;;;;;;;;;;;;;;;25.81;40.16;94244.56;4951704;28;9087;-64
2023/12/10 08:35:04;;;;;;;;;;;;;;;25.82;40.17;94256.31;4945206;28;7609;-65
2023/12/10 08:37:31;;;;;;;;;;;;;;;25.81;39.98;94252.84;4970673;28;7165;-61
2023/12/10 08:40:08;;;;;;;;;;;;;;;25.85;39.57;94253.28;4997058;28;9244;-62
2023/12/10 08:42:43;;;;;;;;;;;;;;;25.85;39.39;94249.78;4989532;28;7132;-61
2023/12/10 08:45:19;;;;;;;;;;;;;;;25.83;39.88;94236.53;4993956;28;7171;-61
2023/12/10 08:47:58;;;;;;;;;;;;;;;25.83;39.46;94241.28;4992014;28;7402;-61
2023/12/10 08:50:49;;;;;;;;;;;;;;;25.85;39.93;94245.03;4998678;28;7161;-61
2023/12/10 08:53:27;;;;;;;;;;;;;;;25.83;40.15;94231.03;4995090;28;7282;-61
2023/12/10 08:56:10;;;;;;;;;;;;;;;25.87;39.82;94236.25;4991639;28;9950;-61
2023/12/10 08:58:46;;;;;;;;;;;;;;;25.87;39.97;94225.97;4999470;28;7084;-61
2023/12/10 09:01:43;;;;;;;;;;;;;;;25.85;39.73;94231.25;4996219;28;7258;-61
2023/12/10 09:04:09;;;;;;;;;;;;;;;25.82;39.18;94228.78;4937493;28;7272;-61
2023/12/10 09:06:56;;;;;;;;;;;;;;;25.84;39.75;94237.25;4943763;28;8727;-61
2023/12/10 09:09:24;;;;;;;;;;;;;;;25.82;39.83;94231.53;4957243;28;7052;-61
2023/12/10 09:11:50;;;;;;;;;;;;;;;25.83;39.04;94242.03;4981958;28;7220;-61
2023/12/10 09:14:18;;;;;;;;;;;;;;;25.86;39.26;94235.47;4980106;28;7295;-61
2023/12/10 09:16:44;;;;;;;;;;;;;;;25.84;39.91;94240.00;4970375;28;7448;-61
2023/12/10 09:19:11;;;;;;;;;;;;;;;25.80;39.64;94234.81;4956219;28;6969;-62
2023/12/10 09:21:38;;;;;;;;;;;;;;;25.80;38.86;94232.03;4977452;28;7042;-62
2023/12/10 09:24:04;;;;;;;;;;;;;;;25.83;39.70;94233.03;4980199;28;7355;-61
2023/12/10 09:26:30;;;;;;;;;;;;;;;25.82;39.22;94235.03;4955106;28;7270;-61
2023/12/10 09:29:10;;;;;;;;;;;;;;;25.81;38.90;94230.78;4975742;28;7409;-62
2023/12/10 09:31:37;;;;;;;;;;;;;;;25.78;39.53;94234.56;4978519;28;9392;-62
2023/12/10 09:34:03;;;;;;;;;;;;;;;25.75;38.67;94227.31;4969389;28;6869;-62
2023/12/10 09:36:30;;;;;;;;;;;;;;;25.78;39.17;94248.34;4962525;28;7167;-61
2023/12/10 09:39:00;;;;;;;;;;;;;;;25.78;38.93;94251.09;4970535;28;6903;-61
2023/12/10 09:41:26;;;;;;;;;;;;;;;25.79;38.81;94258.13;5009012;28;8761;-62
2023/12/10 09:43:52;;;;;;;;;;;;;;;25.80;38.66;94265.09;5029181;28;7276;-61
2023/12/10 09:46:32;;;;;;;;;;;;;;;25.79;38.76;94266.38;5017213;28;7233;-62
2023/12/10 09:49:13;;;;;;;;;;;;;;;25.80;39.21;94270.63;5017634;28;7580;-62
2023/12/10 09:52:12;;;;;;;;;;;;;;;25.84;38.79;94275.84;5020482;28;9027;-62
2023/12/10 09:54:54;;;;;;;;;;;;;;;25.82;38.83;94284.63;4990463;28;9043;-61
2023/12/10 09:57:31;;;;;;;;;;;;;;;25.81;38.94;94277.63;4999404;28;6994;-62
2023/12/10 10:00:07;;;;;;;;;;;;;;;25.81;39.35;94269.38;4987768;28;7007;-62
2023/12/10 10:02:36;;;;;;;;;;;;;;;25.83;39.61;94279.88;4966041;28;7265;-61
2023/12/10 10:05:10;;;;;;;;;;;;;;;25.81;38.91;94291.41;4976369;28;6992;-62
2023/12/10 10:07:38;;;;;;;;;;;;;;;25.74;39.32;94275.44;4969444;28;9127;-61
2023/12/10 10:10:07;;;;;;;;;;;;;;;25.75;39.66;94285.19;4980242;28;7208;-61
2023/12/10 10:12:33;;;;;;;;;;;;;;;25.76;39.01;94281.19;4966682;28;9183;-61
2023/12/10 10:15:13;;;;;;;;;;;;;;;25.79;39.72;94282.16;4967088;28;9229;-61
2023/12/10 10:18:14;;;;;;;;;;;;;;;25.78;39.77;94286.16;4969372;28;8058;-61
2023/12/10 10:20:41;;;;;;;;;;;;;;;25.77;39.56;94290.94;4913147;29;7183;-61
2023/12/10 10:23:17;;;;;;;;;;;;;;;25.77;39.16;94285.44;4916799;29;7252;-61
2023/12/10 10:25:45;;;;;;;;;;;;;;;25.78;39.44;94280.66;4917814;29;8843;-61
2023/12/10 10:28:15;;;;;;;;;;;;;;;25.78;39.68;94266.88;4901481;29;7081;-62
2023/12/10 10:30:51;;;;;;;;;;;;;;;25.77;39.38;94257.88;4900694;29;8755;-61
2023/12/10 10:33:23;;;;;;;;;;;;;;;25.80;40.02;94265.09;4936617;28;7223;-62
2023/12/10 10:35:52;;;;;;;;;;;;;;;25.80;39.32;94254.09;4927710;29;7246;-62
2023/12/10 10:38:49;;;;;;;;;;;;;;;25.79;39.77;94257.38;4935819;28;9105;-61
2023/12/10 10:41:25;;;;;;;;;;;;;;;25.80;39.64;94253.34;4899310;29;7312;-61
2023/12/10 10:43:58;;;;;;;;;;;;;;;25.80;38.88;94256.84;4917419;29;7180;-62
2023/12/10 10:46:25;;;;;;;;;;;;;;;25.79;39.05;94263.63;4917264;29;7243;-61
2023/12/10 10:48:52;;;;;;;;;;;;;;;25.76;39.22;94242.59;4918472;29;10416;-61
2023/12/10 10:51:27;;;;;;;;;;;;;;;25.78;39.47;94244.84;4929750;29;7290;-61
2023/12/10 10:53:56;;;;;;;;;;;;;;;25.76;39.48;94242.59;4905730;29;7206;-61
2023/12/10 10:56:37;;;;;;;;;;;;;;;25.78;39.49;94245.59;4938802;28;8860;-63
2023/12/10 10:59:30;;;;;;;;;;;;;;;25.78;39.09;94239.31;4996829;28;7211;-62
2023/12/10 11:02:10;;;;;;;;;;;;;;;25.76;39.29;94237.09;4974272;28;7279;-63
2023/12/10 11:05:05;;;;;;;;;;;;;;;25.78;39.77;94233.81;4965178;28;7094;-63
2023/12/10 11:07:33;;;;;;;;;;;;;;;25.77;39.45;94241.34;4925746;29;7326;-62
2023/12/10 11:10:05;;;;;;;;;;;;;;;25.76;39.07;94233.59;4925480;29;7310;-62
2023/12/10 11:12:42;;;;;;;;;;;;;;;25.78;38.92;94233.81;4923883;29;7658;-62
2023/12/10 11:15:52;;;;;;;;;;;;;;;25.76;39.10;94226.06;4931977;29;7237;-62
2023/12/10 11:18:48;;;;;;;;;;;;;;;25.78;39.73;94223.56;4952590;28;7223;-62
2023/12/10 11:21:23;;;;;;;;;;;;;;;25.76;39.24;94215.06;4951428;28;7113;-63
2023/12/10 11:23:50;;;;;;;;;;;;;;;25.78;39.92;94234.56;4957398;28;7195;-62
2023/12/10 11:26:16;;;;;;;;;;;;;;;25.76;39.56;94226.06;4969690;28;7208;-63
2023/12/10 11:29:04;;;;;;;;;;;;;;;25.77;39.45;94232.34;4942134;28;8173;-63
2023/12/10 11:32:07;;;;;;;;;;;;;;;25.77;39.87;94237.84;4945589;28;6993;-63
2023/12/10 11:34:33;;;;;;;;;;;;;;;25.76;39.31;94225.31;4935745;28;7235;-63
2023/12/10 11:37:00;;;;;;;;;;;;;;;25.74;39.78;94212.06;4955137;28;9388;-63
2023/12/10 11:39:40;;;;;;;;;;;;;;;25.75;39.18;94224.56;4968766;28;7030;-62
2023/12/10 11:42:07;;;;;;;;;;;;;;;25.77;39.23;94222.06;4967790;28;7191;-62
2023/12/10 11:44:52;;;;;;;;;;;;;;;25.77;38.96;94218.56;5016581;28;9081;-63
2023/12/10 11:47:18;;;;;;;;;;;;;;;25.76;39.27;94212.31;5034929;28;9231;-63
2023/12/10 11:49:46;;;;;;;;;;;;;;;25.76;39.29;94204.03;5020844;28;9328;-63
2023/12/10 11:52:29;;;;;;;;;;;;;;;25.77;39.72;94196.53;5018418;28;8435;-62
2023/12/10 11:54:57;;;;;;;;;;;;;;;25.76;39.73;94203.28;5034719;28;7109;-63
2023/12/10 11:57:33;;;;;;;;;;;;;;;25.78;39.21;94196.00;5019359;28;7612;-62
2023/12/10 12:00:08;;;;;;;;;;;;;;;25.76;39.67;94184.75;5043686;28;6992;-62
2023/12/10 12:02:54;;;;;;;;;;;;;;;25.80;39.20;94192.72;5014222;28;6992;-62
2023/12/10 12:05:54;;;;;;;;;;;;;;;25.79;39.91;94196.75;5017036;28;8319;-61
2023/12/10 12:08:32;;;;;;;;;;;;;;;25.80;39.70;94209.25;5007774;28;8625;-61
2023/12/10 12:11:00;;;;;;;;;;;;;;;25.78;39.62;94214.53;5007226;28;7003;-61
2023/12/10 12:13:30;;;;;;;;;;;;;;;25.76;39.40;94217.81;5005751;28;9276;-61
2023/12/10 12:19:36;;;;;;;;;;;;;;;25.75;39.13;94232.84;5010750;28;7273;-61
2023/12/10 12:22:05;;;;;;;;;;;;;;;25.76;40.00;94211.56;5002339;28;9116;-61
2023/12/10 12:24:31;;;;;;;;;;;;;;;25.79;39.48;94197.50;5011379;28;7236;-61
2023/12/10 12:27:12;;;;;;;;;;;;;;;25.83;39.90;94213.75;4994816;28;7251;-61
2023/12/10 12:29:54;;;;;;;;;;;;;;;25.82;39.20;94215.75;5002727;28;7591;-61
2023/12/10 12:32:51;;;;;;;;;;;;;;;25.83;38.95;94225.50;5018471;28;7505;-61
2023/12/10 12:35:30;;;;;;;;;;;;;;;25.82;39.84;94226.00;4936797;28;8605;-61
2023/12/10 12:38:11;;;;;;;;;;;;;;;25.82;39.14;94226.75;4955320;28;7250;-60
2023/12/10 12:41:10;;;;;;;;;;;;;;;25.82;39.11;94224.00;4952221;28;7195;-61
2023/12/10 12:43:46;;;;;;;;;;;;;;;25.83;39.14;94214.50;4917233;29;9138;-62
2023/12/10 12:46:22;;;;;;;;;;;;;;;25.84;39.61;94215.97;4950454;28;7393;-62
2023/12/10 12:48:49;;;;;;;;;;;;;;;25.84;39.41;94215.22;4939531;28;9306;-62
2023/12/10 12:51:20;;;;;;;;;;;;;;;25.84;38.74;94209.72;4931058;28;7007;-61
2023/12/10 12:53:46;;;;;;;;;;;;;;;25.84;38.74;94204.19;4959546;28;9266;-61
2023/12/10 12:56:52;;;;;;;;;;;;;;;25.85;38.17;94184.41;4970871;28;7328;-62
2023/12/10 12:59:20;;;;;;;;;;;;;;;25.83;37.94;94181.44;4954386;28;7277;-61
2023/12/10 13:02:18;;;;;;;;;;;;;;;25.83;37.03;94178.69;4952086;28;8775;-61
2023/12/10 13:04:46;;;;;;;;;;;;;;;25.74;36.26;94173.50;4931505;28;9125;-62
2023/12/10 13:07:25;;;;;;;;;;;;;;;25.76;36.55;94173.72;4916893;29;7383;-61
2023/12/10 13:10:23;;;;;;;;;;;;;;;25.76;35.88;94170.97;4929884;29;7237;-61
2023/12/10 13:12:49;;;;;;;;;;;;;;;25.72;36.48;94169.78;4920788;29;7066;-61
2023/12/10 13:15:18;;;;;;;;;;;;;;;25.79;36.50;94163.69;4915294;29;7200;-56
2023/12/10 13:17:44;;;;;;;;;;;;;;;25.79;36.73;94158.94;4927839;29;6980;-63
2023/12/10 13:20:18;;;;;;;;;;;;;;;25.82;35.78;94163.41;4959244;28;7292;-62
2023/12/10 13:22:44;;;;;;;;;;;;;;;25.85;36.21;94164.38;4971336;28;7328;-63
2023/12/10 13:25:17;;;;;;;;;;;;;;;25.83;36.34;94170.41;4969465;28;8970;-63
2023/12/10 13:27:51;;;;;;;;;;;;;;;25.85;36.36;94170.63;4973707;28;7313;-63
2023/12/10 13:30:19;;;;;;;;;;;;;;;25.85;36.19;94167.88;4973505;28;9392;-63
2023/12/10 13:32:53;;;;;;;;;;;;;;;25.83;36.16;94162.16;4987194;28;6860;-62
2023/12/10 13:35:23;;;;;;;;;;;;;;;25.82;36.59;94168.91;4951098;28;7230;-63
2023/12/10 13:37:49;;;;;;;;;;;;;;;25.77;36.53;94164.22;4967612;28;7195;-63
2023/12/10 13:40:50;;;;;;;;;;;;;;;25.79;36.81;94164.44;4984032;28;9288;-63
2023/12/10 13:43:23;;;;;;;;;;;;;;;25.77;36.78;94160.72;4987164;28;7066;-63
2023/12/10 13:45:49;;;;;;;;;;;;;;;25.82;36.22;94157.88;4969106;28;7119;-63